sensor_id;sensor_type;location;lat;lon;timestamp;temperature;humidity
64937;SHT30;51452;47.698;19.050;2023-10-09T00:00:07;11.16;51.38
64937;SHT30;51452;47.698;19.050;2023-10-09T00:02:51;11.03;51.77
64937;SHT30;51452;47.698;19.050;2023-10-09T00:05:16;11.07;50.37
64937;SHT30;51452;47.698;19.050;2023-10-09T00:07:48;11.09;50.30
64937;SHT30;51452;47.698;19.050;2023-10-09T00:10:14;11.19;49.86
64937;SHT30;51452;47.698;19.050;2023-10-09T00:12:42;11.22;50.41
64937;SHT30;51452;47.698;19.050;2023-10-09T00:15:09;11.17;50.03
64937;SHT30;51452;47.698;19.050;2023-10-09T00:17:38;11.19;49.92
64937;SHT30;51452;47.698;19.050;2023-10-09T00:20:05;11.24;50.51
64937;SHT30;51452;47.698;19.050;2023-10-09T00:22:42;11.37;51.82
64937;SHT30;51452;47.698;19.050;2023-10-09T00:25:11;11.41;49.99
64937;SHT30;51452;47.698;19.050;2023-10-09T00:27:41;11.43;51.41
64937;SHT30;51452;47.698;19.050;2023-10-09T00:30:12;11.45;52.78
64937;SHT30;51452;47.698;19.050;2023-10-09T00:32:41;11.45;50.96
64937;SHT30;51452;47.698;19.050;2023-10-09T00:35:17;11.37;49.97
64937;SHT30;51452;47.698;19.050;2023-10-09T00:38:00;11.45;51.94
64937;SHT30;51452;47.698;19.050;2023-10-09T00:40:32;11.54;50.53
64937;SHT30;51452;47.698;19.050;2023-10-09T00:42:59;11.53;51.46
64937;SHT30;51452;47.698;19.050;2023-10-09T00:45:31;11.58;53.46
64937;SHT30;51452;47.698;19.050;2023-10-09T00:47:57;11.58;52.25
64937;SHT30;51452;47.698;19.050;2023-10-09T00:50:26;11.61;51.35
64937;SHT30;51452;47.698;19.050;2023-10-09T00:52:54;11.64;50.77
64937;SHT30;51452;47.698;19.050;2023-10-09T00:55:31;11.58;50.29
64937;SHT30;51452;47.698;19.050;2023-10-09T00:58:11;11.68;50.26
64937;SHT30;51452;47.698;19.050;2023-10-09T01:00:38;11.71;51.64
64937;SHT30;51452;47.698;19.050;2023-10-09T01:03:14;11.77;51.14
64937;SHT30;51452;47.698;19.050;2023-10-09T01:05:40;11.75;49.80
64937;SHT30;51452;47.698;19.050;2023-10-09T01:08:17;11.70;48.49
64937;SHT30;51452;47.698;19.050;2023-10-09T01:10:50;11.71;47.19
64937;SHT30;51452;47.698;19.050;2023-10-09T01:13:18;11.73;49.79
64937;SHT30;51452;47.698;19.050;2023-10-09T01:15:44;11.85;50.99
64937;SHT30;51452;47.698;19.050;2023-10-09T01:18:11;11.84;50.75
64937;SHT30;51452;47.698;19.050;2023-10-09T01:20:37;11.84;50.83
64937;SHT30;51452;47.698;19.050;2023-10-09T01:23:11;11.78;50.69
64937;SHT30;51452;47.698;19.050;2023-10-09T01:25:37;11.79;51.48
64937;SHT30;51452;47.698;19.050;2023-10-09T01:28:10;11.63;51.10
64937;SHT30;51452;47.698;19.050;2023-10-09T01:30:41;11.65;51.18
64937;SHT30;51452;47.698;19.050;2023-10-09T01:33:08;11.68;51.30
64937;SHT30;51452;47.698;19.050;2023-10-09T01:35:50;11.73;51.27
64937;SHT30;51452;47.698;19.050;2023-10-09T01:38:20;11.70;52.62
64937;SHT30;51452;47.698;19.050;2023-10-09T01:40:55;11.67;51.48
64937;SHT30;51452;47.698;19.050;2023-10-09T01:43:28;11.65;51.21
64937;SHT30;51452;47.698;19.050;2023-10-09T01:45:53;11.67;50.28
64937;SHT30;51452;47.698;19.050;2023-10-09T01:48:19;11.57;48.04
64937;SHT30;51452;47.698;19.050;2023-10-09T01:50:49;11.64;49.01
64937;SHT30;51452;47.698;19.050;2023-10-09T01:53:14;11.71;50.99
64937;SHT30;51452;47.698;19.050;2023-10-09T01:55:43;11.67;50.23
64937;SHT30;51452;47.698;19.050;2023-10-09T01:58:11;11.73;50.92
64937;SHT30;51452;47.698;19.050;2023-10-09T02:00:45;11.68;50.92
64937;SHT30;51452;47.698;19.050;2023-10-09T02:03:15;11.73;51.82
64937;SHT30;51452;47.698;19.050;2023-10-09T02:05:43;11.63;53.35
64937;SHT30;51452;47.698;19.050;2023-10-09T02:08:09;11.58;52.06
64937;SHT30;51452;47.698;19.050;2023-10-09T02:10:36;11.58;51.76
64937;SHT30;51452;47.698;19.050;2023-10-09T02:13:05;11.64;52.16
64937;SHT30;51452;47.698;19.050;2023-10-09T02:15:38;11.70;51.77
64937;SHT30;51452;47.698;19.050;2023-10-09T02:18:12;11.64;52.08
64937;SHT30;51452;47.698;19.050;2023-10-09T02:23:38;11.75;52.58
64937;SHT30;51452;47.698;19.050;2023-10-09T02:26:16;11.71;52.53
64937;SHT30;51452;47.698;19.050;2023-10-09T02:28:57;11.73;52.59
64937;SHT30;51452;47.698;19.050;2023-10-09T02:31:29;11.73;52.56
64937;SHT30;51452;47.698;19.050;2023-10-09T02:34:17;11.77;53.10
64937;SHT30;51452;47.698;19.050;2023-10-09T02:36:46;11.71;52.85
64937;SHT30;51452;47.698;19.050;2023-10-09T02:39:24;11.68;52.80
64937;SHT30;51452;47.698;19.050;2023-10-09T02:41:55;11.68;53.08
64937;SHT30;51452;47.698;19.050;2023-10-09T02:44:26;11.74;52.60
64937;SHT30;51452;47.698;19.050;2023-10-09T02:46:54;11.70;51.36
64937;SHT30;51452;47.698;19.050;2023-10-09T02:49:23;11.70;51.14
64937;SHT30;51452;47.698;19.050;2023-10-09T02:51:49;11.73;51.74
64937;SHT30;51452;47.698;19.050;2023-10-09T02:54:18;11.74;51.16
64937;SHT30;51452;47.698;19.050;2023-10-09T02:56:45;11.73;53.10
64937;SHT30;51452;47.698;19.050;2023-10-09T02:59:13;11.73;52.46
64937;SHT30;51452;47.698;19.050;2023-10-09T03:01:40;11.81;53.45
64937;SHT30;51452;47.698;19.050;2023-10-09T03:04:06;11.82;51.47
64937;SHT30;51452;47.698;19.050;2023-10-09T03:06:36;11.89;51.29
64937;SHT30;51452;47.698;19.050;2023-10-09T03:09:09;11.91;51.51
64937;SHT30;51452;47.698;19.050;2023-10-09T03:11:47;11.94;51.16
64937;SHT30;51452;47.698;19.050;2023-10-09T03:14:19;11.96;52.25
64937;SHT30;51452;47.698;19.050;2023-10-09T03:16:45;11.89;52.09
64937;SHT30;51452;47.698;19.050;2023-10-09T03:19:13;11.91;52.79
64937;SHT30;51452;47.698;19.050;2023-10-09T03:21:38;11.89;51.95
64937;SHT30;51452;47.698;19.050;2023-10-09T03:24:04;11.70;52.23
64937;SHT30;51452;47.698;19.050;2023-10-09T03:26:31;11.79;52.37
64937;SHT30;51452;47.698;19.050;2023-10-09T03:28:57;11.81;54.21
64937;SHT30;51452;47.698;19.050;2023-10-09T03:31:27;11.74;52.79
64937;SHT30;51452;47.698;19.050;2023-10-09T03:33:52;11.73;51.81
64937;SHT30;51452;47.698;19.050;2023-10-09T03:36:18;11.67;51.66
64937;SHT30;51452;47.698;19.050;2023-10-09T03:38:43;11.78;53.65
64937;SHT30;51452;47.698;19.050;2023-10-09T03:41:09;11.79;53.50
64937;SHT30;51452;47.698;19.050;2023-10-09T03:43:38;11.75;52.64
64937;SHT30;51452;47.698;19.050;2023-10-09T03:46:09;11.77;52.86
64937;SHT30;51452;47.698;19.050;2023-10-09T03:48:47;11.81;54.23
64937;SHT30;51452;47.698;19.050;2023-10-09T03:51:13;11.82;54.08
64937;SHT30;51452;47.698;19.050;2023-10-09T03:53:46;11.82;54.51
64937;SHT30;51452;47.698;19.050;2023-10-09T03:56:13;11.86;54.75
64937;SHT30;51452;47.698;19.050;2023-10-09T03:58:46;11.86;53.94
64937;SHT30;51452;47.698;19.050;2023-10-09T04:01:19;11.88;53.08
64937;SHT30;51452;47.698;19.050;2023-10-09T04:03:51;11.91;53.87
64937;SHT30;51452;47.698;19.050;2023-10-09T04:06:26;11.89;51.50
64937;SHT30;51452;47.698;19.050;2023-10-09T04:08:56;11.91;53.27
64937;SHT30;51452;47.698;19.050;2023-10-09T04:11:23;11.81;49.89
64937;SHT30;51452;47.698;19.050;2023-10-09T04:13:50;11.91;52.70
64937;SHT30;51452;47.698;19.050;2023-10-09T04:16:17;11.82;50.73
64937;SHT30;51452;47.698;19.050;2023-10-09T04:18:58;11.84;51.89
64937;SHT30;51452;47.698;19.050;2023-10-09T04:21:25;11.88;53.83
64937;SHT30;51452;47.698;19.050;2023-10-09T04:24:01;11.74;52.45
64937;SHT30;51452;47.698;19.050;2023-10-09T04:26:43;11.65;53.38
64937;SHT30;51452;47.698;19.050;2023-10-09T04:29:12;11.75;52.31
64937;SHT30;51452;47.698;19.050;2023-10-09T04:31:57;11.67;49.81
64937;SHT30;51452;47.698;19.050;2023-10-09T04:34:26;11.73;50.49
64937;SHT30;51452;47.698;19.050;2023-10-09T04:37:00;11.78;52.00
64937;SHT30;51452;47.698;19.050;2023-10-09T04:39:29;11.79;51.45
64937;SHT30;51452;47.698;19.050;2023-10-09T04:41:58;11.81;50.60
64937;SHT30;51452;47.698;19.050;2023-10-09T04:44:43;11.77;50.45
64937;SHT30;51452;47.698;19.050;2023-10-09T04:47:38;11.75;50.26
64937;SHT30;51452;47.698;19.050;2023-10-09T04:50:24;11.77;49.85
64937;SHT30;51452;47.698;19.050;2023-10-09T04:52:52;11.77;50.27
64937;SHT30;51452;47.698;19.050;2023-10-09T04:55:18;11.78;50.50
64937;SHT30;51452;47.698;19.050;2023-10-09T04:57:46;11.71;49.84
64937;SHT30;51452;47.698;19.050;2023-10-09T05:00:26;11.64;49.47
64937;SHT30;51452;47.698;19.050;2023-10-09T05:05:29;11.68;49.66
64937;SHT30;51452;47.698;19.050;2023-10-09T05:08:16;11.68;48.26
64937;SHT30;51452;47.698;19.050;2023-10-09T05:11:02;11.71;49.15
64937;SHT30;51452;47.698;19.050;2023-10-09T05:16:07;11.78;49.61
64937;SHT30;51452;47.698;19.050;2023-10-09T05:18:42;11.85;51.04
64937;SHT30;51452;47.698;19.050;2023-10-09T05:21:10;11.91;49.82
64937;SHT30;51452;47.698;19.050;2023-10-09T05:23:38;11.94;48.80
64937;SHT30;51452;47.698;19.050;2023-10-09T05:26:14;11.95;47.27
64937;SHT30;51452;47.698;19.050;2023-10-09T05:29:32;11.88;47.49
64937;SHT30;51452;47.698;19.050;2023-10-09T05:31:58;11.94;48.09
64937;SHT30;51452;47.698;19.050;2023-10-09T05:34:24;11.85;48.49
64937;SHT30;51452;47.698;19.050;2023-10-09T05:37:07;11.88;49.50
64937;SHT30;51452;47.698;19.050;2023-10-09T05:39:46;11.91;46.51
64937;SHT30;51452;47.698;19.050;2023-10-09T05:42:36;11.92;47.72
64937;SHT30;51452;47.698;19.050;2023-10-09T05:45:16;12.06;47.68
64937;SHT30;51452;47.698;19.050;2023-10-09T05:47:50;11.96;45.23
64937;SHT30;51452;47.698;19.050;2023-10-09T05:50:26;11.96;45.34
64937;SHT30;51452;47.698;19.050;2023-10-09T05:52:52;11.99;46.94
64937;SHT30;51452;47.698;19.050;2023-10-09T05:55:24;11.99;47.12
64937;SHT30;51452;47.698;19.050;2023-10-09T05:57:54;11.95;47.66
64937;SHT30;51452;47.698;19.050;2023-10-09T06:00:38;11.92;46.27
64937;SHT30;51452;47.698;19.050;2023-10-09T06:03:22;11.95;47.25
64937;SHT30;51452;47.698;19.050;2023-10-09T06:05:55;11.95;46.78
64937;SHT30;51452;47.698;19.050;2023-10-09T06:08:30;11.98;46.43
64937;SHT30;51452;47.698;19.050;2023-10-09T06:11:08;11.98;46.68
64937;SHT30;51452;47.698;19.050;2023-10-09T06:13:53;11.98;45.89
64937;SHT30;51452;47.698;19.050;2023-10-09T06:16:37;12.04;46.05
64937;SHT30;51452;47.698;19.050;2023-10-09T06:19:13;12.12;46.34
64937;SHT30;51452;47.698;19.050;2023-10-09T06:21:44;12.12;45.50
64937;SHT30;51452;47.698;19.050;2023-10-09T06:24:18;12.02;45.36
64937;SHT30;51452;47.698;19.050;2023-10-09T06:26:47;12.05;45.23
64937;SHT30;51452;47.698;19.050;2023-10-09T06:29:18;12.06;45.04
64937;SHT30;51452;47.698;19.050;2023-10-09T06:32:01;12.09;44.75
64937;SHT30;51452;47.698;19.050;2023-10-09T06:34:50;12.06;44.78
64937;SHT30;51452;47.698;19.050;2023-10-09T06:37:23;12.06;43.44
64937;SHT30;51452;47.698;19.050;2023-10-09T06:39:48;11.96;43.72
64937;SHT30;51452;47.698;19.050;2023-10-09T06:42:24;11.99;44.01
64937;SHT30;51452;47.698;19.050;2023-10-09T06:45:09;12.08;43.48
64937;SHT30;51452;47.698;19.050;2023-10-09T06:47:40;12.09;42.49
64937;SHT30;51452;47.698;19.050;2023-10-09T06:50:19;12.01;43.17
64937;SHT30;51452;47.698;19.050;2023-10-09T06:52:45;12.08;42.86
64937;SHT30;51452;47.698;19.050;2023-10-09T06:55:25;12.08;43.43
64937;SHT30;51452;47.698;19.050;2023-10-09T06:58:02;12.18;42.63
64937;SHT30;51452;47.698;19.050;2023-10-09T07:00:40;12.12;42.45
64937;SHT30;51452;47.698;19.050;2023-10-09T07:03:27;12.12;43.06
64937;SHT30;51452;47.698;19.050;2023-10-09T07:06:09;12.01;41.59
64937;SHT30;51452;47.698;19.050;2023-10-09T07:08:36;12.08;41.95
64937;SHT30;51452;47.698;19.050;2023-10-09T07:11:09;12.19;42.32
64937;SHT30;51452;47.698;19.050;2023-10-09T07:16:33;12.37;40.54
64937;SHT30;51452;47.698;19.050;2023-10-09T07:19:31;12.42;41.09
64937;SHT30;51452;47.698;19.050;2023-10-09T07:22:03;12.49;40.84
64937;SHT30;51452;47.698;19.050;2023-10-09T07:24:32;12.49;40.39
64937;SHT30;51452;47.698;19.050;2023-10-09T07:27:11;12.53;40.07
64937;SHT30;51452;47.698;19.050;2023-10-09T07:29:40;12.52;40.25
64937;SHT30;51452;47.698;19.050;2023-10-09T07:32:17;12.50;39.93
64937;SHT30;51452;47.698;19.050;2023-10-09T07:34:49;12.64;40.59
64937;SHT30;51452;47.698;19.050;2023-10-09T07:37:26;12.61;40.80
64937;SHT30;51452;47.698;19.050;2023-10-09T07:40:04;12.60;40.75
64937;SHT30;51452;47.698;19.050;2023-10-09T07:42:33;12.61;41.26
64937;SHT30;51452;47.698;19.050;2023-10-09T07:45:10;12.60;40.52
64937;SHT30;51452;47.698;19.050;2023-10-09T07:47:48;12.53;40.02
64937;SHT30;51452;47.698;19.050;2023-10-09T07:50:26;12.47;40.08
64937;SHT30;51452;47.698;19.050;2023-10-09T07:53:04;12.50;40.45
64937;SHT30;51452;47.698;19.050;2023-10-09T07:55:52;12.43;40.11
64937;SHT30;51452;47.698;19.050;2023-10-09T07:58:22;12.52;40.65
64937;SHT30;51452;47.698;19.050;2023-10-09T08:00:55;12.57;40.21
64937;SHT30;51452;47.698;19.050;2023-10-09T08:03:26;12.54;39.94
64937;SHT30;51452;47.698;19.050;2023-10-09T08:05:58;12.57;39.65
64937;SHT30;51452;47.698;19.050;2023-10-09T08:08:43;12.56;40.64
64937;SHT30;51452;47.698;19.050;2023-10-09T08:11:31;12.52;40.53
64937;SHT30;51452;47.698;19.050;2023-10-09T08:14:09;12.50;39.96
64937;SHT30;51452;47.698;19.050;2023-10-09T08:16:50;12.47;40.12
64937;SHT30;51452;47.698;19.050;2023-10-09T08:19:37;12.49;40.80
64937;SHT30;51452;47.698;19.050;2023-10-09T08:22:17;12.47;41.13
64937;SHT30;51452;47.698;19.050;2023-10-09T08:25:03;12.52;40.89
64937;SHT30;51452;47.698;19.050;2023-10-09T08:27:30;12.60;40.49
64937;SHT30;51452;47.698;19.050;2023-10-09T08:29:56;12.68;41.13
64937;SHT30;51452;47.698;19.050;2023-10-09T08:32:40;12.77;40.26
64937;SHT30;51452;47.698;19.050;2023-10-09T08:35:08;12.80;41.18
64937;SHT30;51452;47.698;19.050;2023-10-09T08:37:53;12.60;40.71
64937;SHT30;51452;47.698;19.050;2023-10-09T08:40:20;12.60;40.64
64937;SHT30;51452;47.698;19.050;2023-10-09T08:42:52;12.57;41.00
64937;SHT30;51452;47.698;19.050;2023-10-09T08:45:24;12.54;40.73
64937;SHT30;51452;47.698;19.050;2023-10-09T08:47:53;12.47;40.58
64937;SHT30;51452;47.698;19.050;2023-10-09T08:50:19;12.53;40.78
64937;SHT30;51452;47.698;19.050;2023-10-09T08:52:47;12.64;40.81
64937;SHT30;51452;47.698;19.050;2023-10-09T08:55:14;12.76;41.27
64937;SHT30;51452;47.698;19.050;2023-10-09T08:57:43;12.84;40.37
64937;SHT30;51452;47.698;19.050;2023-10-09T09:00:17;12.90;39.91
64937;SHT30;51452;47.698;19.050;2023-10-09T09:02:47;12.93;40.27
64937;SHT30;51452;47.698;19.050;2023-10-09T09:05:16;12.94;40.29
64937;SHT30;51452;47.698;19.050;2023-10-09T09:07:42;12.90;39.92
64937;SHT30;51452;47.698;19.050;2023-10-09T09:10:08;12.81;40.78
64937;SHT30;51452;47.698;19.050;2023-10-09T09:12:45;12.87;40.46
64937;SHT30;51452;47.698;19.050;2023-10-09T09:15:14;12.84;40.11
64937;SHT30;51452;47.698;19.050;2023-10-09T09:17:44;12.97;39.93
64937;SHT30;51452;47.698;19.050;2023-10-09T09:20:24;12.97;40.60
64937;SHT30;51452;47.698;19.050;2023-10-09T09:22:55;13.14;40.05
64937;SHT30;51452;47.698;19.050;2023-10-09T09:25:24;13.16;39.55
64937;SHT30;51452;47.698;19.050;2023-10-09T09:28:03;13.36;40.39
64937;SHT30;51452;47.698;19.050;2023-10-09T09:30:35;13.44;39.34
64937;SHT30;51452;47.698;19.050;2023-10-09T09:33:28;13.56;39.51
64937;SHT30;51452;47.698;19.050;2023-10-09T09:36:06;13.62;39.74
64937;SHT30;51452;47.698;19.050;2023-10-09T09:38:34;13.58;39.46
64937;SHT30;51452;47.698;19.050;2023-10-09T09:41:26;13.48;40.11
64937;SHT30;51452;47.698;19.050;2023-10-09T09:43:55;13.56;39.44
64937;SHT30;51452;47.698;19.050;2023-10-09T09:46:22;13.65;39.07
64937;SHT30;51452;47.698;19.050;2023-10-09T09:48:57;13.83;39.87
64937;SHT30;51452;47.698;19.050;2023-10-09T09:51:32;13.87;38.84
64937;SHT30;51452;47.698;19.050;2023-10-09T09:53:58;14.00;39.21
64937;SHT30;51452;47.698;19.050;2023-10-09T09:56:28;14.02;39.75
64937;SHT30;51452;47.698;19.050;2023-10-09T09:58:57;14.25;39.26
64937;SHT30;51452;47.698;19.050;2023-10-09T10:01:29;14.38;38.03
64937;SHT30;51452;47.698;19.050;2023-10-09T10:04:04;14.31;37.31
64937;SHT30;51452;47.698;19.050;2023-10-09T10:06:32;14.37;38.84
64937;SHT30;51452;47.698;19.050;2023-10-09T10:08:59;14.33;39.16
64937;SHT30;51452;47.698;19.050;2023-10-09T10:14:13;13.76;45.90
64937;SHT30;51452;47.698;19.050;2023-10-09T10:17:07;13.90;46.81
64937;SHT30;51452;47.698;19.050;2023-10-09T10:22:25;14.33;45.01
64937;SHT30;51452;47.698;19.050;2023-10-09T10:24:56;14.51;44.49
64937;SHT30;51452;47.698;19.050;2023-10-09T10:27:27;14.75;44.54
64937;SHT30;51452;47.698;19.050;2023-10-09T10:35:16;14.71;38.92
64937;SHT30;51452;47.698;19.050;2023-10-09T10:37:45;14.81;40.88
64937;SHT30;51452;47.698;19.050;2023-10-09T10:40:26;15.05;39.82
64937;SHT30;51452;47.698;19.050;2023-10-09T10:43:14;15.02;37.57
64937;SHT30;51452;47.698;19.050;2023-10-09T10:46:04;15.02;38.16
64937;SHT30;51452;47.698;19.050;2023-10-09T10:48:39;15.00;37.69
64937;SHT30;51452;47.698;19.050;2023-10-09T10:51:05;15.12;38.62
64937;SHT30;51452;47.698;19.050;2023-10-09T10:53:30;15.25;38.07
64937;SHT30;51452;47.698;19.050;2023-10-09T10:56:14;15.33;38.25
64937;SHT30;51452;47.698;19.050;2023-10-09T10:58:40;15.43;37.95
64937;SHT30;51452;47.698;19.050;2023-10-09T11:01:19;15.53;37.16
64937;SHT30;51452;47.698;19.050;2023-10-09T11:03:44;15.67;38.33
64937;SHT30;51452;47.698;19.050;2023-10-09T11:09:05;15.88;36.73
64937;SHT30;51452;47.698;19.050;2023-10-09T11:11:50;15.93;36.60
64937;SHT30;51452;47.698;19.050;2023-10-09T11:14:20;16.04;35.99
64937;SHT30;51452;47.698;19.050;2023-10-09T11:16:52;16.19;36.12
64937;SHT30;51452;47.698;19.050;2023-10-09T11:19:23;16.06;35.07
64937;SHT30;51452;47.698;19.050;2023-10-09T11:21:57;16.18;36.38
64937;SHT30;51452;47.698;19.050;2023-10-09T11:24:43;16.32;36.65
64937;SHT30;51452;47.698;19.050;2023-10-09T11:27:13;16.48;36.55
64937;SHT30;51452;47.698;19.050;2023-10-09T11:29:51;16.49;37.00
64937;SHT30;51452;47.698;19.050;2023-10-09T11:32:21;16.42;35.98
64937;SHT30;51452;47.698;19.050;2023-10-09T11:37:34;16.30;36.64
64937;SHT30;51452;47.698;19.050;2023-10-09T11:40:27;16.24;41.09
64937;SHT30;51452;47.698;19.050;2023-10-09T11:43:00;16.16;41.81
64937;SHT30;51452;47.698;19.050;2023-10-09T11:45:27;16.08;43.47
64937;SHT30;51452;47.698;19.050;2023-10-09T11:47:57;16.00;41.76
64937;SHT30;51452;47.698;19.050;2023-10-09T11:50:46;15.84;43.78
64937;SHT30;51452;47.698;19.050;2023-10-09T11:53:19;15.78;44.50
64937;SHT30;51452;47.698;19.050;2023-10-09T11:55:58;15.66;44.74
64937;SHT30;51452;47.698;19.050;2023-10-09T11:58:24;15.54;44.91
64937;SHT30;51452;47.698;19.050;2023-10-09T12:00:54;15.56;45.72
64937;SHT30;51452;47.698;19.050;2023-10-09T12:03:29;15.50;45.30
64937;SHT30;51452;47.698;19.050;2023-10-09T12:05:59;15.40;44.72
64937;SHT30;51452;47.698;19.050;2023-10-09T12:08:37;15.36;44.94
64937;SHT30;51452;47.698;19.050;2023-10-09T12:11:04;15.35;46.50
64937;SHT30;51452;47.698;19.050;2023-10-09T12:13:33;15.22;44.14
64937;SHT30;51452;47.698;19.050;2023-10-09T12:15:59;15.23;45.52
64937;SHT30;51452;47.698;19.050;2023-10-09T12:18:24;15.27;45.66
64937;SHT30;51452;47.698;19.050;2023-10-09T12:20:50;15.33;46.59
64937;SHT30;51452;47.698;19.050;2023-10-09T12:23:22;15.39;45.58
64937;SHT30;51452;47.698;19.050;2023-10-09T12:25:51;15.35;45.00
64937;SHT30;51452;47.698;19.050;2023-10-09T12:28:21;15.43;45.50
64937;SHT30;51452;47.698;19.050;2023-10-09T12:30:48;15.36;46.13
64937;SHT30;51452;47.698;19.050;2023-10-09T12:33:19;15.36;46.80
64937;SHT30;51452;47.698;19.050;2023-10-09T12:35:45;15.33;45.74
64937;SHT30;51452;47.698;19.050;2023-10-09T12:38:11;15.27;47.02
64937;SHT30;51452;47.698;19.050;2023-10-09T12:40:38;15.32;46.70
64937;SHT30;51452;47.698;19.050;2023-10-09T12:43:06;15.15;50.82
64937;SHT30;51452;47.698;19.050;2023-10-09T12:45:41;15.09;51.59
64937;SHT30;51452;47.698;19.050;2023-10-09T12:48:06;14.93;51.84
64937;SHT30;51452;47.698;19.050;2023-10-09T12:50:37;14.98;52.28
64937;SHT30;51452;47.698;19.050;2023-10-09T12:53:10;14.91;53.95
64937;SHT30;51452;47.698;19.050;2023-10-09T12:55:39;14.88;53.72
64937;SHT30;51452;47.698;19.050;2023-10-09T12:58:09;14.76;54.78
64937;SHT30;51452;47.698;19.050;2023-10-09T13:00:40;14.81;52.97
64937;SHT30;51452;47.698;19.050;2023-10-09T13:03:10;14.76;55.25
64937;SHT30;51452;47.698;19.050;2023-10-09T13:06:02;14.75;53.94
64937;SHT30;51452;47.698;19.050;2023-10-09T13:08:32;14.69;55.70
64937;SHT30;51452;47.698;19.050;2023-10-09T13:11:05;14.68;55.83
64937;SHT30;51452;47.698;19.050;2023-10-09T13:13:38;14.64;59.45
64937;SHT30;51452;47.698;19.050;2023-10-09T13:16:16;14.60;58.95
64937;SHT30;51452;47.698;19.050;2023-10-09T13:18:52;14.61;58.73
64937;SHT30;51452;47.698;19.050;2023-10-09T13:21:18;14.57;59.82
64937;SHT30;51452;47.698;19.050;2023-10-09T13:23:44;14.49;60.22
64937;SHT30;51452;47.698;19.050;2023-10-09T13:26:13;14.47;59.57
64937;SHT30;51452;47.698;19.050;2023-10-09T13:29:07;14.40;61.31
64937;SHT30;51452;47.698;19.050;2023-10-09T13:31:35;14.45;62.33
64937;SHT30;51452;47.698;19.050;2023-10-09T13:34:03;14.40;60.93
64937;SHT30;51452;47.698;19.050;2023-10-09T13:36:32;14.47;60.89
64937;SHT30;51452;47.698;19.050;2023-10-09T13:39:06;14.51;61.06
64937;SHT30;51452;47.698;19.050;2023-10-09T13:41:53;14.64;63.09
64937;SHT30;51452;47.698;19.050;2023-10-09T13:44:33;14.67;62.66
64937;SHT30;51452;47.698;19.050;2023-10-09T13:47:03;14.74;60.58
64937;SHT30;51452;47.698;19.050;2023-10-09T13:49:31;14.69;60.66
64937;SHT30;51452;47.698;19.050;2023-10-09T13:52:01;14.72;61.21
64937;SHT30;51452;47.698;19.050;2023-10-09T13:54:27;14.78;59.53
64937;SHT30;51452;47.698;19.050;2023-10-09T13:57:03;14.75;61.03
64937;SHT30;51452;47.698;19.050;2023-10-09T13:59:29;14.82;60.97
64937;SHT30;51452;47.698;19.050;2023-10-09T14:01:55;14.79;59.47
64937;SHT30;51452;47.698;19.050;2023-10-09T14:04:21;14.78;60.82
64937;SHT30;51452;47.698;19.050;2023-10-09T14:06:48;14.81;61.52
64937;SHT30;51452;47.698;19.050;2023-10-09T14:09:14;14.75;61.27
64937;SHT30;51452;47.698;19.050;2023-10-09T14:12:04;14.69;61.30
64937;SHT30;51452;47.698;19.050;2023-10-09T14:14:43;14.64;62.08
64937;SHT30;51452;47.698;19.050;2023-10-09T14:17:18;14.65;62.17
64937;SHT30;51452;47.698;19.050;2023-10-09T14:19:49;14.69;62.67
64937;SHT30;51452;47.698;19.050;2023-10-09T14:22:20;14.67;62.58
64937;SHT30;51452;47.698;19.050;2023-10-09T14:24:47;14.68;64.54
64937;SHT30;51452;47.698;19.050;2023-10-09T14:27:13;14.65;63.84
64937;SHT30;51452;47.698;19.050;2023-10-09T14:29:48;14.58;65.00
64937;SHT30;51452;47.698;19.050;2023-10-09T14:32:15;14.68;65.47
64937;SHT30;51452;47.698;19.050;2023-10-09T14:34:42;14.71;65.20
64937;SHT30;51452;47.698;19.050;2023-10-09T14:37:18;14.72;66.61
64937;SHT30;51452;47.698;19.050;2023-10-09T14:39:45;14.69;67.85
64937;SHT30;51452;47.698;19.050;2023-10-09T14:42:14;14.71;67.32
64937;SHT30;51452;47.698;19.050;2023-10-09T14:44:40;14.64;67.99
64937;SHT30;51452;47.698;19.050;2023-10-09T14:47:07;14.52;68.91
64937;SHT30;51452;47.698;19.050;2023-10-09T14:49:33;14.51;68.98
64937;SHT30;51452;47.698;19.050;2023-10-09T14:52:09;14.40;70.18
64937;SHT30;51452;47.698;19.050;2023-10-09T14:54:38;14.41;70.26
64937;SHT30;51452;47.698;19.050;2023-10-09T14:57:03;14.37;68.85
64937;SHT30;51452;47.698;19.050;2023-10-09T14:59:32;14.40;67.07
64937;SHT30;51452;47.698;19.050;2023-10-09T15:01:58;14.37;68.69
64937;SHT30;51452;47.698;19.050;2023-10-09T15:04:24;14.38;68.22
64937;SHT30;51452;47.698;19.050;2023-10-09T15:06:51;14.44;68.45
64937;SHT30;51452;47.698;19.050;2023-10-09T15:09:16;14.48;69.04
64937;SHT30;51452;47.698;19.050;2023-10-09T15:11:49;14.48;68.53
64937;SHT30;51452;47.698;19.050;2023-10-09T15:14:16;14.38;68.46
64937;SHT30;51452;47.698;19.050;2023-10-09T15:16:43;14.33;69.11
64937;SHT30;51452;47.698;19.050;2023-10-09T15:19:09;14.23;67.89
64937;SHT30;51452;47.698;19.050;2023-10-09T15:21:36;14.23;67.34
64937;SHT30;51452;47.698;19.050;2023-10-09T15:24:12;14.20;67.57
64937;SHT30;51452;47.698;19.050;2023-10-09T15:26:44;14.16;67.74
64937;SHT30;51452;47.698;19.050;2023-10-09T15:29:20;14.13;68.27
64937;SHT30;51452;47.698;19.050;2023-10-09T15:31:54;14.18;69.33
64937;SHT30;51452;47.698;19.050;2023-10-09T15:34:20;14.28;68.86
64937;SHT30;51452;47.698;19.050;2023-10-09T15:36:46;14.27;67.68
64937;SHT30;51452;47.698;19.050;2023-10-09T15:39:14;14.30;68.36
64937;SHT30;51452;47.698;19.050;2023-10-09T15:41:46;14.23;70.00
64937;SHT30;51452;47.698;19.050;2023-10-09T15:44:12;14.21;69.38
64937;SHT30;51452;47.698;19.050;2023-10-09T15:46:39;14.21;69.65
64937;SHT30;51452;47.698;19.050;2023-10-09T15:49:04;14.21;68.95
64937;SHT30;51452;47.698;19.050;2023-10-09T15:51:32;14.13;69.34
64937;SHT30;51452;47.698;19.050;2023-10-09T15:53:58;14.07;67.85
64937;SHT30;51452;47.698;19.050;2023-10-09T15:56:24;14.02;68.35
64937;SHT30;51452;47.698;19.050;2023-10-09T15:58:49;13.96;67.73
64937;SHT30;51452;47.698;19.050;2023-10-09T16:01:16;13.86;67.43
64937;SHT30;51452;47.698;19.050;2023-10-09T16:03:44;13.83;68.39
64937;SHT30;51452;47.698;19.050;2023-10-09T16:06:13;13.79;69.21
64937;SHT30;51452;47.698;19.050;2023-10-09T16:08:42;13.86;69.69
64937;SHT30;51452;47.698;19.050;2023-10-09T16:11:10;13.70;68.97
64937;SHT30;51452;47.698;19.050;2023-10-09T16:13:37;13.79;68.95